sensor_id;sensor_type;location;lat;lon;timestamp;P1;durP1;ratioP1;P2;durP2;ratioP2
4389;SDS011;2209;48.982;8.406;2022-11-20T00:02:21;12.10;;;10.00;;
4389;SDS011;2209;48.982;8.406;2022-11-20T00:04:43;13.30;;;11.73;;
4389;SDS011;2209;48.982;8.406;2022-11-20T00:07:06;11.70;;;10.03;;
4389;SDS011;2209;48.982;8.406;2022-11-20T00:09:28;12.90;;;9.00;;
4389;SDS011;2209;48.982;8.406;2022-11-20T00:11:50;10.53;;;8.80;;
4389;SDS011;2209;48.982;8.406;2022-11-20T00:14:12;10.30;;;9.20;;
4389;SDS011;2209;48.982;8.406;2022-11-20T00:16:36;13.00;;;10.03;;
4389;SDS011;2209;48.982;8.406;2022-11-20T00:18:58;12.17;;;9.90;;
4389;SDS011;2209;48.982;8.406;2022-11-20T00:21:20;10.27;;;9.17;;
4389;SDS011;2209;48.982;8.406;2022-11-20T00:23:44;11.43;;;10.17;;
4389;SDS011;2209;48.982;8.406;2022-11-20T00:26:07;9.83;;;8.83;;
4389;SDS011;2209;48.982;8.406;2022-11-20T00:28:30;10.70;;;8.83;;
4389;SDS011;2209;48.982;8.406;2022-11-20T00:30:57;11.97;;;9.87;;
4389;SDS011;2209;48.982;8.406;2022-11-20T00:33:23;12.10;;;9.60;;
4389;SDS011;2209;48.982;8.406;2022-11-20T00:35:45;11.70;;;9.50;;
4389;SDS011;2209;48.982;8.406;2022-11-20T00:38:07;11.00;;;9.73;;
4389;SDS011;2209;48.982;8.406;2022-11-20T00:40:29;11.53;;;9.77;;
4389;SDS011;2209;48.982;8.406;2022-11-20T00:42:52;11.90;;;9.57;;
4389;SDS011;2209;48.982;8.406;2022-11-20T00:45:14;11.53;;;9.50;;
4389;SDS011;2209;48.982;8.406;2022-11-20T00:47:36;13.77;;;10.07;;
4389;SDS011;2209;48.982;8.406;2022-11-20T00:49:59;11.47;;;9.23;;
4389;SDS011;2209;48.982;8.406;2022-11-20T00:52:21;13.23;;;9.93;;
4389;SDS011;2209;48.982;8.406;2022-11-20T00:54:43;10.70;;;9.50;;
4389;SDS011;2209;48.982;8.406;2022-11-20T00:57:06;16.73;;;9.90;;
4389;SDS011;2209;48.982;8.406;2022-11-20T00:59:28;10.37;;;9.20;;
4389;SDS011;2209;48.982;8.406;2022-11-20T01:01:50;13.30;;;9.67;;
4389;SDS011;2209;48.982;8.406;2022-11-20T01:04:12;12.50;;;10.10;;
4389;SDS011;2209;48.982;8.406;2022-11-20T01:06:36;11.13;;;9.47;;
4389;SDS011;2209;48.982;8.406;2022-11-20T01:09:00;10.53;;;8.93;;
4389;SDS011;2209;48.982;8.406;2022-11-20T01:11:24;13.10;;;10.20;;
4389;SDS011;2209;48.982;8.406;2022-11-20T01:13:48;12.77;;;8.90;;
4389;SDS011;2209;48.982;8.406;2022-11-20T01:16:12;13.33;;;8.57;;
4389;SDS011;2209;48.982;8.406;2022-11-20T01:18:35;11.53;;;8.60;;
4389;SDS011;2209;48.982;8.406;2022-11-20T01:21:02;12.37;;;9.77;;
4389;SDS011;2209;48.982;8.406;2022-11-20T01:23:26;11.73;;;9.23;;
4389;SDS011;2209;48.982;8.406;2022-11-20T01:25:51;11.30;;;8.30;;
4389;SDS011;2209;48.982;8.406;2022-11-20T01:28:13;14.27;;;9.23;;
4389;SDS011;2209;48.982;8.406;2022-11-20T01:30:35;11.07;;;8.93;;
4389;SDS011;2209;48.982;8.406;2022-11-20T01:32:57;9.53;;;8.50;;
4389;SDS011;2209;48.982;8.406;2022-11-20T01:35:19;10.87;;;8.90;;
4389;SDS011;2209;48.982;8.406;2022-11-20T01:37:41;13.70;;;10.20;;
4389;SDS011;2209;48.982;8.406;2022-11-20T01:40:06;11.70;;;9.20;;
4389;SDS011;2209;48.982;8.406;2022-11-20T01:42:28;9.87;;;8.23;;
4389;SDS011;2209;48.982;8.406;2022-11-20T01:48:11;8.43;;;7.50;;
4389;SDS011;2209;48.982;8.406;2022-11-20T01:50:35;11.10;;;7.60;;
4389;SDS011;2209;48.982;8.406;2022-11-20T01:52:58;10.10;;;7.77;;
4389;SDS011;2209;48.982;8.406;2022-11-20T01:55:25;9.33;;;7.90;;
4389;SDS011;2209;48.982;8.406;2022-11-20T01:57:50;8.40;;;7.10;;
4389;SDS011;2209;48.982;8.406;2022-11-20T02:00:13;8.93;;;8.03;;
4389;SDS011;2209;48.982;8.406;2022-11-20T02:02:37;8.07;;;7.27;;
4389;SDS011;2209;48.982;8.406;2022-11-20T02:05:03;8.60;;;7.33;;
4389;SDS011;2209;48.982;8.406;2022-11-20T02:07:33;10.07;;;7.73;;
4389;SDS011;2209;48.982;8.406;2022-11-20T02:09:56;8.57;;;6.80;;
4389;SDS011;2209;48.982;8.406;2022-11-20T02:12:19;8.67;;;7.20;;
4389;SDS011;2209;48.982;8.406;2022-11-20T02:14:58;8.40;;;6.80;;
4389;SDS011;2209;48.982;8.406;2022-11-20T02:17:20;11.33;;;7.30;;
4389;SDS011;2209;48.982;8.406;2022-11-20T02:19:43;7.37;;;6.67;;
4389;SDS011;2209;48.982;8.406;2022-11-20T02:22:07;8.90;;;6.50;;
4389;SDS011;2209;48.982;8.406;2022-11-20T02:24:35;9.10;;;6.63;;
4389;SDS011;2209;48.982;8.406;2022-11-20T02:26:58;6.50;;;5.83;;
4389;SDS011;2209;48.982;8.406;2022-11-20T02:29:23;8.03;;;7.07;;
4389;SDS011;2209;48.982;8.406;2022-11-20T02:31:48;6.50;;;5.80;;
4389;SDS011;2209;48.982;8.406;2022-11-20T02:34:10;7.00;;;6.30;;
4389;SDS011;2209;48.982;8.406;2022-11-20T02:36:33;9.17;;;5.93;;
4389;SDS011;2209;48.982;8.406;2022-11-20T02:38:57;10.40;;;5.80;;
4389;SDS011;2209;48.982;8.406;2022-11-20T02:41:20;10.53;;;5.70;;
4389;SDS011;2209;48.982;8.406;2022-11-20T02:43:42;11.43;;;7.10;;
4389;SDS011;2209;48.982;8.406;2022-11-20T02:46:06;7.87;;;6.57;;
4389;SDS011;2209;48.982;8.406;2022-11-20T02:48:28;8.47;;;6.87;;
4389;SDS011;2209;48.982;8.406;2022-11-20T02:50:50;7.03;;;5.80;;
4389;SDS011;2209;48.982;8.406;2022-11-20T02:53:12;8.50;;;6.43;;
4389;SDS011;2209;48.982;8.406;2022-11-20T02:55:34;6.87;;;5.77;;
4389;SDS011;2209;48.982;8.406;2022-11-20T02:57:58;11.53;;;5.80;;
4389;SDS011;2209;48.982;8.406;2022-11-20T03:00:20;10.13;;;6.40;;
4389;SDS011;2209;48.982;8.406;2022-11-20T03:02:42;7.20;;;6.40;;
4389;SDS011;2209;48.982;8.406;2022-11-20T03:05:04;7.70;;;4.90;;
4389;SDS011;2209;48.982;8.406;2022-11-20T03:07:28;7.10;;;5.90;;
4389;SDS011;2209;48.982;8.406;2022-11-20T03:09:50;8.87;;;5.20;;
4389;SDS011;2209;48.982;8.406;2022-11-20T03:12:12;8.43;;;5.70;;
4389;SDS011;2209;48.982;8.406;2022-11-20T03:14:36;7.07;;;5.77;;
4389;SDS011;2209;48.982;8.406;2022-11-20T03:16:58;6.93;;;5.43;;
4389;SDS011;2209;48.982;8.406;2022-11-20T03:19:21;5.20;;;4.80;;
4389;SDS011;2209;48.982;8.406;2022-11-20T03:21:43;7.27;;;5.40;;
4389;SDS011;2209;48.982;8.406;2022-11-20T03:24:06;6.43;;;5.70;;
4389;SDS011;2209;48.982;8.406;2022-11-20T03:26:28;6.07;;;5.50;;
4389;SDS011;2209;48.982;8.406;2022-11-20T03:28:51;6.70;;;5.30;;
4389;SDS011;2209;48.982;8.406;2022-11-20T03:31:17;5.83;;;5.23;;
4389;SDS011;2209;48.982;8.406;2022-11-20T03:33:41;6.10;;;5.60;;
4389;SDS011;2209;48.982;8.406;2022-11-20T03:36:04;8.13;;;5.60;;
4389;SDS011;2209;48.982;8.406;2022-11-20T03:38:28;7.17;;;5.80;;
4389;SDS011;2209;48.982;8.406;2022-11-20T03:40:50;9.33;;;5.60;;
4389;SDS011;2209;48.982;8.406;2022-11-20T03:43:12;6.07;;;5.33;;
4389;SDS011;2209;48.982;8.406;2022-11-20T03:45:34;10.63;;;5.80;;
4389;SDS011;2209;48.982;8.406;2022-11-20T03:47:58;6.10;;;5.60;;
4389;SDS011;2209;48.982;8.406;2022-11-20T03:50:20;8.63;;;5.47;;
4389;SDS011;2209;48.982;8.406;2022-11-20T03:52:42;5.90;;;5.13;;
4389;SDS011;2209;48.982;8.406;2022-11-20T03:55:04;6.37;;;5.40;;
4389;SDS011;2209;48.982;8.406;2022-11-20T03:57:27;8.43;;;5.87;;
4389;SDS011;2209;48.982;8.406;2022-11-20T03:59:49;5.27;;;4.87;;
4389;SDS011;2209;48.982;8.406;2022-11-20T04:02:11;10.40;;;5.50;;
4389;SDS011;2209;48.982;8.406;2022-11-20T04:04:34;7.07;;;6.30;;
4389;SDS011;2209;48.982;8.406;2022-11-20T04:06:56;5.80;;;5.20;;
4389;SDS011;2209;48.982;8.406;2022-11-20T04:09:18;6.33;;;5.80;;
4389;SDS011;2209;48.982;8.406;2022-11-20T04:11:40;5.93;;;5.33;;
4389;SDS011;2209;48.982;8.406;2022-11-20T04:14:03;5.73;;;5.13;;
4389;SDS011;2209;48.982;8.406;2022-11-20T04:16:28;6.00;;;5.50;;
4389;SDS011;2209;48.982;8.406;2022-11-20T04:18:51;5.83;;;4.50;;
4389;SDS011;2209;48.982;8.406;2022-11-20T04:21:15;6.83;;;5.70;;
4389;SDS011;2209;48.982;8.406;2022-11-20T04:23:38;5.60;;;5.10;;
4389;SDS011;2209;48.982;8.406;2022-11-20T04:26:01;7.10;;;5.67;;
4389;SDS011;2209;48.982;8.406;2022-11-20T04:28:23;7.90;;;6.10;;
4389;SDS011;2209;48.982;8.406;2022-11-20T04:30:46;5.10;;;4.70;;
4389;SDS011;2209;48.982;8.406;2022-11-20T04:33:08;5.33;;;4.83;;
4389;SDS011;2209;48.982;8.406;2022-11-20T04:35:30;4.70;;;4.30;;
4389;SDS011;2209;48.982;8.406;2022-11-20T04:37:56;9.50;;;6.23;;
4389;SDS011;2209;48.982;8.406;2022-11-20T04:40:18;5.93;;;5.03;;
4389;SDS011;2209;48.982;8.406;2022-11-20T04:42:40;8.47;;;6.00;;
4389;SDS011;2209;48.982;8.406;2022-11-20T04:45:03;7.50;;;5.73;;
4389;SDS011;2209;48.982;8.406;2022-11-20T04:47:25;6.27;;;5.03;;
4389;SDS011;2209;48.982;8.406;2022-11-20T04:49:47;7.90;;;6.20;;
4389;SDS011;2209;48.982;8.406;2022-11-20T04:52:10;5.63;;;5.07;;
4389;SDS011;2209;48.982;8.406;2022-11-20T04:54:33;7.53;;;5.10;;
4389;SDS011;2209;48.982;8.406;2022-11-20T04:56:56;6.13;;;5.33;;
4389;SDS011;2209;48.982;8.406;2022-11-20T04:59:18;5.63;;;4.50;;
4389;SDS011;2209;48.982;8.406;2022-11-20T05:01:40;6.80;;;5.40;;
4389;SDS011;2209;48.982;8.406;2022-11-20T05:04:03;8.60;;;5.80;;
4389;SDS011;2209;48.982;8.406;2022-11-20T05:06:25;5.00;;;4.50;;
4389;SDS011;2209;48.982;8.406;2022-11-20T05:08:48;9.40;;;4.93;;
4389;SDS011;2209;48.982;8.406;2022-11-20T05:11:12;7.17;;;5.10;;
4389;SDS011;2209;48.982;8.406;2022-11-20T05:13:35;5.63;;;5.10;;
4389;SDS011;2209;48.982;8.406;2022-11-20T05:16:00;8.33;;;5.60;;
4389;SDS011;2209;48.982;8.406;2022-11-20T05:18:23;6.50;;;5.47;;
4389;SDS011;2209;48.982;8.406;2022-11-20T05:20:45;4.60;;;4.20;;
4389;SDS011;2209;48.982;8.406;2022-11-20T05:23:07;4.77;;;4.30;;
4389;SDS011;2209;48.982;8.406;2022-11-20T05:25:29;5.77;;;4.47;;
4389;SDS011;2209;48.982;8.406;2022-11-20T05:27:53;7.97;;;5.40;;
4389;SDS011;2209;48.982;8.406;2022-11-20T05:30:16;6.67;;;4.90;;
4389;SDS011;2209;48.982;8.406;2022-11-20T05:32:38;5.70;;;5.10;;
4389;SDS011;2209;48.982;8.406;2022-11-20T05:35:00;4.70;;;4.20;;
4389;SDS011;2209;48.982;8.406;2022-11-20T05:37:22;4.50;;;4.13;;
4389;SDS011;2209;48.982;8.406;2022-11-20T05:39:44;6.17;;;4.57;;
4389;SDS011;2209;48.982;8.406;2022-11-20T05:42:06;5.10;;;4.70;;
4389;SDS011;2209;48.982;8.406;2022-11-20T05:44:47;4.23;;;3.83;;
4389;SDS011;2209;48.982;8.406;2022-11-20T05:47:09;4.53;;;4.00;;
4389;SDS011;2209;48.982;8.406;2022-11-20T05:49:31;6.40;;;3.47;;
4389;SDS011;2209;48.982;8.406;2022-11-20T05:51:53;3.97;;;3.23;;
4389;SDS011;2209;48.982;8.406;2022-11-20T05:54:15;4.53;;;4.13;;
4389;SDS011;2209;48.982;8.406;2022-11-20T05:56:38;4.53;;;4.10;;
4389;SDS011;2209;48.982;8.406;2022-11-20T05:59:00;4.23;;;3.83;;
4389;SDS011;2209;48.982;8.406;2022-11-20T06:01:24;5.13;;;4.07;;
4389;SDS011;2209;48.982;8.406;2022-11-20T06:03:47;4.53;;;3.60;;
4389;SDS011;2209;48.982;8.406;2022-11-20T06:06:11;4.60;;;4.17;;
4389;SDS011;2209;48.982;8.406;2022-11-20T06:08:33;3.57;;;3.27;;
4389;SDS011;2209;48.982;8.406;2022-11-20T06:10:56;6.30;;;3.80;;
4389;SDS011;2209;48.982;8.406;2022-11-20T06:13:18;4.07;;;3.37;;
4389;SDS011;2209;48.982;8.406;2022-11-20T06:15:40;4.33;;;3.63;;
4389;SDS011;2209;48.982;8.406;2022-11-20T06:18:04;3.73;;;3.13;;
4389;SDS011;2209;48.982;8.406;2022-11-20T06:20:26;3.83;;;3.10;;
4389;SDS011;2209;48.982;8.406;2022-11-20T06:22:48;3.23;;;3.03;;
4389;SDS011;2209;48.982;8.406;2022-11-20T06:25:10;3.23;;;3.00;;
4389;SDS011;2209;48.982;8.406;2022-11-20T06:27:33;5.53;;;3.37;;
4389;SDS011;2209;48.982;8.406;2022-11-20T06:29:55;4.37;;;3.20;;
4389;SDS011;2209;48.982;8.406;2022-11-20T06:32:19;3.60;;;3.30;;
4389;SDS011;2209;48.982;8.406;2022-11-20T06:34:43;3.20;;;2.90;;
4389;SDS011;2209;48.982;8.406;2022-11-20T06:37:06;4.00;;;2.87;;
4389;SDS011;2209;48.982;8.406;2022-11-20T06:39:29;5.03;;;3.03;;
4389;SDS011;2209;48.982;8.406;2022-11-20T06:41:51;4.00;;;3.13;;
4389;SDS011;2209;48.982;8.406;2022-11-20T06:44:13;4.47;;;3.20;;
4389;SDS011;2209;48.982;8.406;2022-11-20T06:46:35;3.77;;;3.43;;
4389;SDS011;2209;48.982;8.406;2022-11-20T06:48:57;4.33;;;3.50;;
4389;SDS011;2209;48.982;8.406;2022-11-20T06:51:22;3.63;;;3.33;;
4389;SDS011;2209;48.982;8.406;2022-11-20T06:53:44;4.27;;;3.83;;
4389;SDS011;2209;48.982;8.406;2022-11-20T06:56:06;3.70;;;3.40;;
4389;SDS011;2209;48.982;8.406;2022-11-20T06:58:30;2.73;;;2.53;;
4389;SDS011;2209;48.982;8.406;2022-11-20T07:00:52;5.10;;;3.20;;
4389;SDS011;2209;48.982;8.406;2022-11-20T07:03:14;3.63;;;3.33;;
4389;SDS011;2209;48.982;8.406;2022-11-20T07:05:37;5.63;;;3.40;;
4389;SDS011;2209;48.982;8.406;2022-11-20T07:08:00;3.70;;;3.40;;
4389;SDS011;2209;48.982;8.406;2022-11-20T07:10:23;3.80;;;3.10;;
4389;SDS011;2209;48.982;8.406;2022-11-20T07:12:48;3.10;;;2.90;;
4389;SDS011;2209;48.982;8.406;2022-11-20T07:15:12;2.90;;;2.70;;
4389;SDS011;2209;48.982;8.406;2022-11-20T07:17:34;3.20;;;2.90;;
4389;SDS011;2209;48.982;8.406;2022-11-20T07:19:56;7.50;;;3.70;;
4389;SDS011;2209;48.982;8.406;2022-11-20T07:22:18;6.70;;;3.80;;
4389;SDS011;2209;48.982;8.406;2022-11-20T07:24:43;3.60;;;3.30;;
4389;SDS011;2209;48.982;8.406;2022-11-20T07:27:05;6.00;;;2.90;;
4389;SDS011;2209;48.982;8.406;2022-11-20T07:29:27;3.43;;;3.13;;
4389;SDS011;2209;48.982;8.406;2022-11-20T07:31:49;3.53;;;3.23;;
4389;SDS011;2209;48.982;8.406;2022-11-20T07:34:11;4.00;;;3.67;;
4389;SDS011;2209;48.982;8.406;2022-11-20T07:36:34;4.30;;;3.90;;
4389;SDS011;2209;48.982;8.406;2022-11-20T07:38:56;3.13;;;2.87;;
4389;SDS011;2209;48.982;8.406;2022-11-20T07:41:19;3.77;;;3.37;;
4389;SDS011;2209;48.982;8.406;2022-11-20T07:43:41;3.60;;;3.30;;
4389;SDS011;2209;48.982;8.406;2022-11-20T07:46:04;6.80;;;3.37;;
4389;SDS011;2209;48.982;8.406;2022-11-20T07:48:27;3.83;;;2.53;;
4389;SDS011;2209;48.982;8.406;2022-11-20T07:50:49;3.53;;;3.33;;
4389;SDS011;2209;48.982;8.406;2022-11-20T07:53:14;4.07;;;3.67;;
4389;SDS011;2209;48.982;8.406;2022-11-20T07:55:41;5.20;;;3.13;;
4389;SDS011;2209;48.982;8.406;2022-11-20T07:58:04;3.60;;;3.30;;
4389;SDS011;2209;48.982;8.406;2022-11-20T08:00:26;2.70;;;2.40;;
4389;SDS011;2209;48.982;8.406;2022-11-20T08:02:49;3.57;;;3.27;;
4389;SDS011;2209;48.982;8.406;2022-11-20T08:05:11;4.13;;;3.23;;
4389;SDS011;2209;48.982;8.406;2022-11-20T08:07:36;4.70;;;3.23;;
4389;SDS011;2209;48.982;8.406;2022-11-20T08:09:59;3.83;;;3.53;;
4389;SDS011;2209;48.982;8.406;2022-11-20T08:12:21;3.77;;;2.60;;
4389;SDS011;2209;48.982;8.406;2022-11-20T08:15:02;4.20;;;3.27;;
4389;SDS011;2209;48.982;8.406;2022-11-20T08:17:25;3.67;;;3.37;;
4389;SDS011;2209;48.982;8.406;2022-11-20T08:19:47;3.30;;;3.00;;
4389;SDS011;2209;48.982;8.406;2022-11-20T08:22:09;4.23;;;3.30;;
4389;SDS011;2209;48.982;8.406;2022-11-20T08:24:31;3.40;;;3.10;;
4389;SDS011;2209;48.982;8.406;2022-11-20T08:26:53;3.50;;;3.00;;
4389;SDS011;2209;48.982;8.406;2022-11-20T08:29:18;5.27;;;3.43;;
4389;SDS011;2209;48.982;8.406;2022-11-20T08:31:41;4.60;;;3.70;;
4389;SDS011;2209;48.982;8.406;2022-11-20T08:34:04;3.50;;;3.20;;
4389;SDS011;2209;48.982;8.406;2022-11-20T08:36:26;5.73;;;3.60;;
4389;SDS011;2209;48.982;8.406;2022-11-20T08:38:48;3.43;;;3.13;;
4389;SDS011;2209;48.982;8.406;2022-11-20T08:41:11;3.30;;;3.00;;
4389;SDS011;2209;48.982;8.406;2022-11-20T08:43:46;3.57;;;3.10;;
4389;SDS011;2209;48.982;8.406;2022-11-20T08:46:08;5.10;;;4.00;;
4389;SDS011;2209;48.982;8.406;2022-11-20T08:48:31;3.17;;;2.97;;
4389;SDS011;2209;48.982;8.406;2022-11-20T08:50:57;4.10;;;3.70;;
4389;SDS011;2209;48.982;8.406;2022-11-20T08:53:19;3.73;;;3.40;;
4389;SDS011;2209;48.982;8.406;2022-11-20T08:55:41;3.10;;;2.80;;
4389;SDS011;2209;48.982;8.406;2022-11-20T08:58:04;4.07;;;3.00;;
4389;SDS011;2209;48.982;8.406;2022-11-20T09:00:26;3.90;;;3.60;;
4389;SDS011;2209;48.982;8.406;2022-11-20T09:02:48;7.30;;;3.87;;
4389;SDS011;2209;48.982;8.406;2022-11-20T09:05:12;3.53;;;3.23;;
4389;SDS011;2209;48.982;8.406;2022-11-20T09:07:34;4.40;;;3.20;;
4389;SDS011;2209;48.982;8.406;2022-11-20T09:09:56;4.70;;;2.93;;
4389;SDS011;2209;48.982;8.406;2022-11-20T09:12:18;3.20;;;3.00;;
4389;SDS011;2209;48.982;8.406;2022-11-20T09:14:40;3.97;;;3.40;;
4389;SDS011;2209;48.982;8.406;2022-11-20T09:17:03;3.27;;;2.97;;
4389;SDS011;2209;48.982;8.406;2022-11-20T09:19:25;3.27;;;3.07;;
4389;SDS011;2209;48.982;8.406;2022-11-20T09:21:48;3.37;;;3.17;;
4389;SDS011;2209;48.982;8.406;2022-11-20T09:24:10;3.70;;;3.40;;
4389;SDS011;2209;48.982;8.406;2022-11-20T09:26:33;4.00;;;3.70;;
4389;SDS011;2209;48.982;8.406;2022-11-20T09:28:55;3.80;;;2.97;;
4389;SDS011;2209;48.982;8.406;2022-11-20T09:31:19;5.00;;;3.33;;
4389;SDS011;2209;48.982;8.406;2022-11-20T09:33:44;4.10;;;3.07;;
4389;SDS011;2209;48.982;8.406;2022-11-20T09:36:07;5.90;;;3.27;;
4389;SDS011;2209;48.982;8.406;2022-11-20T09:38:31;4.87;;;4.43;;
4389;SDS011;2209;48.982;8.406;2022-11-20T09:40:55;3.20;;;3.00;;
4389;SDS011;2209;48.982;8.406;2022-11-20T09:43:20;6.90;;;3.50;;
4389;SDS011;2209;48.982;8.406;2022-11-20T09:45:52;3.40;;;3.20;;
4389;SDS011;2209;48.982;8.406;2022-11-20T09:48:33;4.60;;;3.10;;
4389;SDS011;2209;48.982;8.406;2022-11-20T09:51:05;4.00;;;3.50;;
4389;SDS011;2209;48.982;8.406;2022-11-20T09:53:42;7.13;;;3.80;;
4389;SDS011;2209;48.982;8.406;2022-11-20T09:56:19;4.47;;;4.07;;
4389;SDS011;2209;48.982;8.406;2022-11-20T09:58:42;3.80;;;3.43;;
4389;SDS011;2209;48.982;8.406;2022-11-20T10:01:10;4.57;;;3.73;;
4389;SDS011;2209;48.982;8.406;2022-11-20T10:03:37;4.83;;;4.43;;
4389;SDS011;2209;48.982;8.406;2022-11-20T10:06:05;4.13;;;3.83;;
4389;SDS011;2209;48.982;8.406;2022-11-20T10:08:35;6.67;;;3.60;;
4389;SDS011;2209;48.982;8.406;2022-11-20T10:11:04;4.40;;;4.10;;
4389;SDS011;2209;48.982;8.406;2022-11-20T10:13:33;6.63;;;3.87;;
4389;SDS011;2209;48.982;8.406;2022-11-20T10:16:05;6.77;;;3.63;;
4389;SDS011;2209;48.982;8.406;2022-11-20T10:18:44;5.47;;;3.70;;
4389;SDS011;2209;48.982;8.406;2022-11-20T10:21:21;3.50;;;3.20;;
4389;SDS011;2209;48.982;8.406;2022-11-20T10:23:59;3.73;;;3.40;;
4389;SDS011;2209;48.982;8.406;2022-11-20T10:26:39;7.73;;;4.23;;
4389;SDS011;2209;48.982;8.406;2022-11-20T10:29:11;4.33;;;3.60;;
4389;SDS011;2209;48.982;8.406;2022-11-20T10:31:37;3.97;;;3.40;;
4389;SDS011;2209;48.982;8.406;2022-11-20T10:34:03;4.50;;;3.60;;
4389;SDS011;2209;48.982;8.406;2022-11-20T10:36:30;4.70;;;4.20;;
4389;SDS011;2209;48.982;8.406;2022-11-20T10:38:59;5.83;;;4.90;;
4389;SDS011;2209;48.982;8.406;2022-11-20T10:41:27;4.37;;;3.97;;
4389;SDS011;2209;48.982;8.406;2022-11-20T10:43:54;4.20;;;3.80;;
4389;SDS011;2209;48.982;8.406;2022-11-20T10:46:23;4.40;;;4.00;;
4389;SDS011;2209;48.982;8.406;2022-11-20T10:48:48;6.43;;;3.87;;
4389;SDS011;2209;48.982;8.406;2022-11-20T10:51:13;9.40;;;4.00;;
4389;SDS011;2209;48.982;8.406;2022-11-20T10:53:44;6.50;;;4.43;;
4389;SDS011;2209;48.982;8.406;2022-11-20T10:56:19;7.43;;;4.37;;
4389;SDS011;2209;48.982;8.406;2022-11-20T10:58:43;3.93;;;3.57;;
4389;SDS011;2209;48.982;8.406;2022-11-20T11:01:13;4.30;;;3.90;;
4389;SDS011;2209;48.982;8.406;2022-11-20T11:03:37;4.47;;;3.97;;
4389;SDS011;2209;48.982;8.406;2022-11-20T11:06:01;4.60;;;4.20;;
4389;SDS011;2209;48.982;8.406;2022-11-20T11:08:28;6.27;;;4.10;;
4389;SDS011;2209;48.982;8.406;2022-11-20T11:10:56;4.63;;;4.23;;
4389;SDS011;2209;48.982;8.406;2022-11-20T11:13:23;3.93;;;3.63;;
4389;SDS011;2209;48.982;8.406;2022-11-20T11:15:47;10.30;;;4.03;;
4389;SDS011;2209;48.982;8.406;2022-11-20T11:18:09;6.07;;;4.00;;
4389;SDS011;2209;48.982;8.406;2022-11-20T11:20:32;5.43;;;3.57;;
4389;SDS011;2209;48.982;8.406;2022-11-20T11:22:55;3.53;;;3.33;;
4389;SDS011;2209;48.982;8.406;2022-11-20T11:25:19;4.70;;;3.43;;
4389;SDS011;2209;48.982;8.406;2022-11-20T11:27:48;3.83;;;3.27;;
4389;SDS011;2209;48.982;8.406;2022-11-20T11:30:14;6.03;;;3.57;;
4389;SDS011;2209;48.982;8.406;2022-11-20T11:32:38;4.00;;;3.33;;
4389;SDS011;2209;48.982;8.406;2022-11-20T11:35:00;5.30;;;3.57;;
4389;SDS011;2209;48.982;8.406;2022-11-20T11:37:32;4.13;;;3.73;;
4389;SDS011;2209;48.982;8.406;2022-11-20T11:39:56;3.03;;;2.83;;
4389;SDS011;2209;48.982;8.406;2022-11-20T11:42:18;2.93;;;2.63;;
4389;SDS011;2209;48.982;8.406;2022-11-20T11:44:43;3.87;;;3.47;;
4389;SDS011;2209;48.982;8.406;2022-11-20T11:47:35;3.37;;;3.17;;
4389;SDS011;2209;48.982;8.406;2022-11-20T11:50:15;3.50;;;2.60;;
4389;SDS011;2209;48.982;8.406;2022-11-20T11:52:41;3.77;;;2.80;;
4389;SDS011;2209;48.982;8.406;2022-11-20T11:55:07;3.33;;;2.40;;
4389;SDS011;2209;48.982;8.406;2022-11-20T11:57:34;3.33;;;2.53;;
4389;SDS011;2209;48.982;8.406;2022-11-20T12:00:03;2.87;;;2.63;;
4389;SDS011;2209;48.982;8.406;2022-11-20T12:02:39;5.33;;;2.83;;
4389;SDS011;2209;48.982;8.406;2022-11-20T12:05:16;5.63;;;2.90;;
4389;SDS011;2209;48.982;8.406;2022-11-20T12:07:41;3.37;;;3.07;;
4389;SDS011;2209;48.982;8.406;2022-11-20T12:10:09;4.70;;;3.20;;
4389;SDS011;2209;48.982;8.406;2022-11-20T12:12:38;9.93;;;3.80;;
4389;SDS011;2209;48.982;8.406;2022-11-20T12:15:06;3.73;;;2.40;;
4389;SDS011;2209;48.982;8.406;2022-11-20T12:17:34;3.47;;;2.37;;
4389;SDS011;2209;48.982;8.406;2022-11-20T12:19:57;5.23;;;2.53;;
4389;SDS011;2209;48.982;8.406;2022-11-20T12:22:22;6.87;;;2.73;;
4389;SDS011;2209;48.982;8.406;2022-11-20T12:24:52;5.90;;;2.07;;
4389;SDS011;2209;48.982;8.406;2022-11-20T12:30:14;2.60;;;1.90;;
4389;SDS011;2209;48.982;8.406;2022-11-20T12:35:35;2.23;;;2.00;;
4389;SDS011;2209;48.982;8.406;2022-11-20T12:41:10;2.00;;;1.80;;
4389;SDS011;2209;48.982;8.406;2022-11-20T12:44:02;4.83;;;1.63;;
4389;SDS011;2209;48.982;8.406;2022-11-20T12:46:51;3.53;;;2.10;;
4389;SDS011;2209;48.982;8.406;2022-11-20T12:49:26;2.80;;;2.07;;
4389;SDS011;2209;48.982;8.406;2022-11-20T12:51:59;3.00;;;1.40;;
4389;SDS011;2209;48.982;8.406;2022-11-20T12:54:46;3.50;;;1.50;;
4389;SDS011;2209;48.982;8.406;2022-11-20T12:57:24;4.13;;;1.83;;
4389;SDS011;2209;48.982;8.406;2022-11-20T12:59:57;2.30;;;1.43;;
4389;SDS011;2209;48.982;8.406;2022-11-20T13:02:30;2.60;;;1.67;;
4389;SDS011;2209;48.982;8.406;2022-11-20T13:05:06;7.80;;;2.00;;
4389;SDS011;2209;48.982;8.406;2022-11-20T13:07:39;2.20;;;1.57;;
4389;SDS011;2209;48.982;8.406;2022-11-20T13:10:02;4.10;;;1.87;;
4389;SDS011;2209;48.982;8.406;2022-11-20T13:12:28;3.93;;;1.80;;
4389;SDS011;2209;48.982;8.406;2022-11-20T13:14:56;1.47;;;1.37;;
4389;SDS011;2209;48.982;8.406;2022-11-20T13:17:28;2.90;;;1.70;;
4389;SDS011;2209;48.982;8.406;2022-11-20T13:19:58;3.37;;;1.40;;
4389;SDS011;2209;48.982;8.406;2022-11-20T13:22:25;4.00;;;2.10;;
4389;SDS011;2209;48.982;8.406;2022-11-20T13:24:51;7.50;;;1.77;;
4389;SDS011;2209;48.982;8.406;2022-11-20T13:27:20;2.20;;;1.43;;
4389;SDS011;2209;48.982;8.406;2022-11-20T13:29:44;2.23;;;1.70;;
4389;SDS011;2209;48.982;8.406;2022-11-20T13:32:13;2.33;;;1.40;;
4389;SDS011;2209;48.982;8.406;2022-11-20T13:34:37;1.57;;;1.20;;
4389;SDS011;2209;48.982;8.406;2022-11-20T13:36:59;2.67;;;1.63;;
4389;SDS011;2209;48.982;8.406;2022-11-20T13:39:24;4.20;;;1.40;;
4389;SDS011;2209;48.982;8.406;2022-11-20T13:41:53;1.70;;;1.60;;
4389;SDS011;2209;48.982;8.406;2022-11-20T13:44:21;2.33;;;1.27;;
4389;SDS011;2209;48.982;8.406;2022-11-20T13:46:48;3.93;;;1.40;;
4389;SDS011;2209;48.982;8.406;2022-11-20T13:49:10;3.90;;;1.20;;
4389;SDS011;2209;48.982;8.406;2022-11-20T13:51:40;1.53;;;1.30;;
4389;SDS011;2209;48.982;8.406;2022-11-20T13:57:16;1.30;;;1.20;;
4389;SDS011;2209;48.982;8.406;2022-11-20T13:59:57;1.60;;;1.50;;
4389;SDS011;2209;48.982;8.406;2022-11-20T14:02:25;2.10;;;1.37;;
4389;SDS011;2209;48.982;8.406;2022-11-20T14:04:49;7.47;;;1.93;;
4389;SDS011;2209;48.982;8.406;2022-11-20T14:07:13;1.93;;;1.77;;
4389;SDS011;2209;48.982;8.406;2022-11-20T14:09:35;4.63;;;1.57;;
4389;SDS011;2209;48.982;8.406;2022-11-20T14:11:57;1.50;;;1.40;;
4389;SDS011;2209;48.982;8.406;2022-11-20T14:14:22;1.43;;;1.17;;
4389;SDS011;2209;48.982;8.406;2022-11-20T14:16:46;4.43;;;1.40;;
4389;SDS011;2209;48.982;8.406;2022-11-20T14:19:19;2.67;;;1.60;;
4389;SDS011;2209;48.982;8.406;2022-11-20T14:21:46;3.17;;;1.57;;
4389;SDS011;2209;48.982;8.406;2022-11-20T14:24:10;3.27;;;1.40;;
4389;SDS011;2209;48.982;8.406;2022-11-20T14:26:33;1.70;;;1.60;;
4389;SDS011;2209;48.982;8.406;2022-11-20T14:28:55;2.30;;;1.33;;
4389;SDS011;2209;48.982;8.406;2022-11-20T14:31:21;2.07;;;1.47;;
4389;SDS011;2209;48.982;8.406;2022-11-20T14:33:45;2.33;;;1.50;;
4389;SDS011;2209;48.982;8.406;2022-11-20T14:36:15;2.23;;;1.30;;
4389;SDS011;2209;48.982;8.406;2022-11-20T14:38:38;4.80;;;1.43;;
4389;SDS011;2209;48.982;8.406;2022-11-20T14:41:06;1.73;;;1.00;;
4389;SDS011;2209;48.982;8.406;2022-11-20T14:43:28;2.20;;;1.40;;
4389;SDS011;2209;48.982;8.406;2022-11-20T14:45:55;2.13;;;1.80;;
4389;SDS011;2209;48.982;8.406;2022-11-20T14:48:20;1.50;;;1.40;;
4389;SDS011;2209;48.982;8.406;2022-11-20T14:50:46;5.13;;;1.80;;
4389;SDS011;2209;48.982;8.406;2022-11-20T14:53:08;2.13;;;1.17;;
4389;SDS011;2209;48.982;8.406;2022-11-20T14:55:31;1.70;;;1.60;;
4389;SDS011;2209;48.982;8.406;2022-11-20T14:57:54;5.00;;;1.53;;
4389;SDS011;2209;48.982;8.406;2022-11-20T15:00:18;2.43;;;1.53;;
4389;SDS011;2209;48.982;8.406;2022-11-20T15:02:43;2.90;;;1.53;;
4389;SDS011;2209;48.982;8.406;2022-11-20T15:05:08;2.10;;;1.10;;
4389;SDS011;2209;48.982;8.406;2022-11-20T15:07:31;3.17;;;1.40;;
4389;SDS011;2209;48.982;8.406;2022-11-20T15:09:59;4.00;;;1.73;;
4389;SDS011;2209;48.982;8.406;2022-11-20T15:12:22;1.37;;;1.27;;
4389;SDS011;2209;48.982;8.406;2022-11-20T15:14:44;1.33;;;1.10;;